Alta, Illinois
Current Conditions -  °F | °C
As of 12:18 PM on Monday 26 Jan 2015 (Local Time) from KPIA Reporting Station
Light Snow Light Snow  
Wind Chill: 16°   Ceiling: 4400
Heat Index: 26°   Visibility: 4mi
Dew Point: 22°   Wind: 10mph
Humidity: 84%   Direction: 180°S
Pressure: 29.9"   Gusts: NA
Location:  40.7792°N, 89.6377°W
Report Text: KPIA 261818Z 18009KT 4SM -SN BR SCT007 BKN044 OVC075 M03/M06 A2990 RMK AO2 P0000 T10331056
Loading
Personal Weather Stations






























Interactive Weather Map New forecast layout! Learn more

10-Day Weather Forecast

Advertisements
Track Severe Weather on mobile